sensor_id;sensor_type;location;lat;lon;timestamp;temperature;humidity
41168;DHT22;26906;45.658;9.272;2023-04-15T07:16:02;14.30;99.90
41168;DHT22;26906;45.658;9.272;2023-04-15T07:18:30;14.30;99.90
41168;DHT22;26906;45.658;9.272;2023-04-15T07:20:56;14.40;99.90
41168;DHT22;26906;45.658;9.272;2023-04-15T07:23:22;14.50;99.90
41168;DHT22;26906;45.658;9.272;2023-04-15T07:25:48;14.50;99.90
41168;DHT22;26906;45.658;9.272;2023-04-15T07:28:13;14.30;99.90
41168;DHT22;26906;45.658;9.272;2023-04-15T07:30:39;14.40;99.90
41168;DHT22;26906;45.658;9.272;2023-04-15T07:33:05;14.90;99.90
41168;DHT22;26906;45.658;9.272;2023-04-15T07:35:31;15.40;99.90
41168;DHT22;26906;45.658;9.272;2023-04-15T07:37:57;15.70;99.90
41168;DHT22;26906;45.658;9.272;2023-04-15T07:40:23;15.80;99.90
41168;DHT22;26906;45.658;9.272;2023-04-15T07:42:48;15.90;99.90
41168;DHT22;26906;45.658;9.272;2023-04-15T07:45:15;16.30;99.90
41168;DHT22;26906;45.658;9.272;2023-04-15T07:47:41;16.50;99.90
41168;DHT22;26906;45.658;9.272;2023-04-15T07:50:08;16.80;99.90
41168;DHT22;26906;45.658;9.272;2023-04-15T07:52:35;16.90;99.90
41168;DHT22;26906;45.658;9.272;2023-04-15T07:55:06;17.20;99.90
41168;DHT22;26906;45.658;9.272;2023-04-15T07:57:36;17.30;99.90
41168;DHT22;26906;45.658;9.272;2023-04-15T08:00:03;17.50;99.90
41168;DHT22;26906;45.658;9.272;2023-04-15T08:02:38;17.60;99.90
41168;DHT22;26906;45.658;9.272;2023-04-15T08:05:04;17.50;99.90
41168;DHT22;26906;45.658;9.272;2023-04-15T08:07:31;17.60;99.90
41168;DHT22;26906;45.658;9.272;2023-04-15T08:09:57;17.80;99.90
41168;DHT22;26906;45.658;9.272;2023-04-15T08:12:23;17.90;99.90
41168;DHT22;26906;45.658;9.272;2023-04-15T08:14:50;17.70;99.90
41168;DHT22;26906;45.658;9.272;2023-04-15T08:17:16;17.60;99.90
41168;DHT22;26906;45.658;9.272;2023-04-15T08:19:43;17.80;99.90
41168;DHT22;26906;45.658;9.272;2023-04-15T08:22:09;17.90;99.90
41168;DHT22;26906;45.658;9.272;2023-04-15T08:24:36;18.10;99.90
41168;DHT22;26906;45.658;9.272;2023-04-15T08:27:03;18.20;99.90
41168;DHT22;26906;45.658;9.272;2023-04-15T08:29:33;18.20;99.90
41168;DHT22;26906;45.658;9.272;2023-04-15T08:31:59;18.10;99.90
41168;DHT22;26906;45.658;9.272;2023-04-15T08:34:28;17.80;99.90
41168;DHT22;26906;45.658;9.272;2023-04-15T08:36:55;17.80;99.90
41168;DHT22;26906;45.658;9.272;2023-04-15T08:39:21;17.90;99.90
41168;DHT22;26906;45.658;9.272;2023-04-15T08:41:55;18.00;99.90
41168;DHT22;26906;45.658;9.272;2023-04-15T08:44:24;18.10;99.90
41168;DHT22;26906;45.658;9.272;2023-04-15T08:46:52;18.30;99.90
41168;DHT22;26906;45.658;9.272;2023-04-15T08:49:20;18.30;99.90
41168;DHT22;26906;45.658;9.272;2023-04-15T08:51:47;18.40;99.90
41168;DHT22;26906;45.658;9.272;2023-04-15T08:54:14;18.60;99.90
41168;DHT22;26906;45.658;9.272;2023-04-15T08:56:39;18.60;99.90
41168;DHT22;26906;45.658;9.272;2023-04-15T08:59:06;18.90;99.90
41168;DHT22;26906;45.658;9.272;2023-04-15T09:01:33;19.00;99.90
41168;DHT22;26906;45.658;9.272;2023-04-15T09:03:59;19.10;99.90
41168;DHT22;26906;45.658;9.272;2023-04-15T09:06:27;19.00;99.90
41168;DHT22;26906;45.658;9.272;2023-04-15T09:08:52;19.10;99.90
41168;DHT22;26906;45.658;9.272;2023-04-15T09:11:18;19.10;99.90
41168;DHT22;26906;45.658;9.272;2023-04-15T09:13:45;19.10;99.90
41168;DHT22;26906;45.658;9.272;2023-04-15T09:16:12;19.10;99.90
41168;DHT22;26906;45.658;9.272;2023-04-15T09:18:38;19.10;99.90
41168;DHT22;26906;45.658;9.272;2023-04-15T09:21:12;19.30;99.90
41168;DHT22;26906;45.658;9.272;2023-04-15T09:23:40;19.50;99.90
41168;DHT22;26906;45.658;9.272;2023-04-15T09:26:15;20.00;99.90
41168;DHT22;26906;45.658;9.272;2023-04-15T09:28:41;19.90;99.90
41168;DHT22;26906;45.658;9.272;2023-04-15T09:31:07;19.80;99.90
41168;DHT22;26906;45.658;9.272;2023-04-15T09:33:34;19.90;99.70
41168;DHT22;26906;45.658;9.272;2023-04-15T09:36:04;19.80;99.40
41168;DHT22;26906;45.658;9.272;2023-04-15T09:38:31;19.40;99.30
41168;DHT22;26906;45.658;9.272;2023-04-15T09:40:57;19.00;99.80
41168;DHT22;26906;45.658;9.272;2023-04-15T09:43:39;19.00;99.90
41168;DHT22;26906;45.658;9.272;2023-04-15T09:46:05;19.10;99.90
41168;DHT22;26906;45.658;9.272;2023-04-15T09:48:31;19.30;99.90
41168;DHT22;26906;45.658;9.272;2023-04-15T09:50:57;19.50;99.90
41168;DHT22;26906;45.658;9.272;2023-04-15T09:53:24;19.40;99.90
41168;DHT22;26906;45.658;9.272;2023-04-15T09:55:55;19.30;99.90
41168;DHT22;26906;45.658;9.272;2023-04-15T09:58:23;19.10;99.60
41168;DHT22;26906;45.658;9.272;2023-04-15T10:00:51;19.30;99.70
41168;DHT22;26906;45.658;9.272;2023-04-15T10:03:26;19.70;99.90
41168;DHT22;26906;45.658;9.272;2023-04-15T10:05:54;20.10;99.10
41168;DHT22;26906;45.658;9.272;2023-04-15T10:08:27;20.10;99.30
41168;DHT22;26906;45.658;9.272;2023-04-15T10:10:53;20.80;98.60
41168;DHT22;26906;45.658;9.272;2023-04-15T10:13:27;21.10;97.80
41168;DHT22;26906;45.658;9.272;2023-04-15T10:16:05;21.20;97.50
41168;DHT22;26906;45.658;9.272;2023-04-15T10:18:34;21.60;98.00
41168;DHT22;26906;45.658;9.272;2023-04-15T10:21:00;21.20;96.70
41168;DHT22;26906;45.658;9.272;2023-04-15T10:23:27;21.20;96.20
41168;DHT22;26906;45.658;9.272;2023-04-15T10:25:53;21.10;96.30
41168;DHT22;26906;45.658;9.272;2023-04-15T10:28:19;21.50;98.40
41168;DHT22;26906;45.658;9.272;2023-04-15T10:30:47;21.70;96.60
41168;DHT22;26906;45.658;9.272;2023-04-15T10:33:16;21.80;97.20
41168;DHT22;26906;45.658;9.272;2023-04-15T10:35:43;22.10;97.50
41168;DHT22;26906;45.658;9.272;2023-04-15T10:41:18;22.40;96.20
41168;DHT22;26906;45.658;9.272;2023-04-15T10:43:48;22.20;95.10
41168;DHT22;26906;45.658;9.272;2023-04-15T10:49:12;22.40;95.40
41168;DHT22;26906;45.658;9.272;2023-04-15T10:51:40;22.50;95.10
41168;DHT22;26906;45.658;9.272;2023-04-15T10:54:15;22.30;93.70
41168;DHT22;26906;45.658;9.272;2023-04-15T10:56:44;22.10;94.60
41168;DHT22;26906;45.658;9.272;2023-04-15T10:59:15;22.30;95.50
41168;DHT22;26906;45.658;9.272;2023-04-15T11:04:57;22.40;94.80
41168;DHT22;26906;45.658;9.272;2023-04-15T11:12:57;22.30;96.30
41168;DHT22;26906;45.658;9.272;2023-04-15T11:15:36;22.40;96.10
41168;DHT22;26906;45.658;9.272;2023-04-15T11:20:52;21.80;95.80
41168;DHT22;26906;45.658;9.272;2023-04-15T11:23:28;21.80;94.90
41168;DHT22;26906;45.658;9.272;2023-04-15T11:25:55;21.80;95.10
41168;DHT22;26906;45.658;9.272;2023-04-15T11:28:28;22.10;96.10
41168;DHT22;26906;45.658;9.272;2023-04-15T11:30:54;22.00;94.80
41168;DHT22;26906;45.658;9.272;2023-04-15T11:33:21;21.80;95.30
41168;DHT22;26906;45.658;9.272;2023-04-15T11:35:47;21.70;95.40
41168;DHT22;26906;45.658;9.272;2023-04-15T11:38:14;21.30;95.10
41168;DHT22;26906;45.658;9.272;2023-04-15T11:40:41;21.20;95.20
41168;DHT22;26906;45.658;9.272;2023-04-15T11:43:15;21.30;96.00
41168;DHT22;26906;45.658;9.272;2023-04-15T11:45:55;21.50;95.90
41168;DHT22;26906;45.658;9.272;2023-04-15T11:48:32;21.70;95.60
41168;DHT22;26906;45.658;9.272;2023-04-15T11:51:03;21.70;95.50
41168;DHT22;26906;45.658;9.272;2023-04-15T11:53:46;21.80;95.60
41168;DHT22;26906;45.658;9.272;2023-04-15T11:56:23;21.80;95.10
41168;DHT22;26906;45.658;9.272;2023-04-15T11:58:56;21.90;94.90
41168;DHT22;26906;45.658;9.272;2023-04-15T12:01:36;22.10;95.30
41168;DHT22;26906;45.658;9.272;2023-04-15T12:06:37;22.30;95.40
41168;DHT22;26906;45.658;9.272;2023-04-15T12:09:11;22.50;94.30
41168;DHT22;26906;45.658;9.272;2023-04-15T12:11:44;22.60;94.70
41168;DHT22;26906;45.658;9.272;2023-04-15T12:14:14;22.50;94.00
41168;DHT22;26906;45.658;9.272;2023-04-15T12:16:42;22.50;94.20
41168;DHT22;26906;45.658;9.272;2023-04-15T12:19:10;22.30;93.40
41168;DHT22;26906;45.658;9.272;2023-04-15T12:21:38;22.10;93.40
41168;DHT22;26906;45.658;9.272;2023-04-15T12:24:07;22.00;93.00
41168;DHT22;26906;45.658;9.272;2023-04-15T12:26:44;22.10;93.20
41168;DHT22;26906;45.658;9.272;2023-04-15T12:29:11;22.20;94.50
41168;DHT22;26906;45.658;9.272;2023-04-15T12:31:48;22.30;95.30
41168;DHT22;26906;45.658;9.272;2023-04-15T12:34:16;22.60;95.20
41168;DHT22;26906;45.658;9.272;2023-04-15T12:36:42;22.80;95.50
41168;DHT22;26906;45.658;9.272;2023-04-15T12:39:08;22.70;95.20
41168;DHT22;26906;45.658;9.272;2023-04-15T12:41:33;22.80;95.30
41168;DHT22;26906;45.658;9.272;2023-04-15T12:43:59;22.70;94.70
41168;DHT22;26906;45.658;9.272;2023-04-15T12:46:26;22.50;94.40
41168;DHT22;26906;45.658;9.272;2023-04-15T12:48:52;22.50;95.00
41168;DHT22;26906;45.658;9.272;2023-04-15T12:51:18;22.50;95.00
41168;DHT22;26906;45.658;9.272;2023-04-15T12:53:45;22.50;95.40
41168;DHT22;26906;45.658;9.272;2023-04-15T12:56:12;22.70;95.40
41168;DHT22;26906;45.658;9.272;2023-04-15T12:58:38;22.70;95.00
41168;DHT22;26906;45.658;9.272;2023-04-15T13:01:03;22.90;94.50
41168;DHT22;26906;45.658;9.272;2023-04-15T13:03:29;23.00;94.60
41168;DHT22;26906;45.658;9.272;2023-04-15T13:05:55;23.20;94.60
41168;DHT22;26906;45.658;9.272;2023-04-15T13:08:22;23.30;94.20
41168;DHT22;26906;45.658;9.272;2023-04-15T13:10:48;23.00;92.90
41168;DHT22;26906;45.658;9.272;2023-04-15T13:13:13;22.80;93.50
41168;DHT22;26906;45.658;9.272;2023-04-15T13:15:40;22.80;94.90
41168;DHT22;26906;45.658;9.272;2023-04-15T13:18:06;22.80;94.90
41168;DHT22;26906;45.658;9.272;2023-04-15T13:20:32;22.80;94.60
41168;DHT22;26906;45.658;9.272;2023-04-15T13:22:58;22.80;94.40
41168;DHT22;26906;45.658;9.272;2023-04-15T13:25:23;23.00;94.80
41168;DHT22;26906;45.658;9.272;2023-04-15T13:27:50;23.20;94.70
41168;DHT22;26906;45.658;9.272;2023-04-15T13:30:16;22.90;93.80
41168;DHT22;26906;45.658;9.272;2023-04-15T13:32:41;23.00;94.50
41168;DHT22;26906;45.658;9.272;2023-04-15T13:35:07;22.80;94.40
41168;DHT22;26906;45.658;9.272;2023-04-15T13:37:33;22.70;94.50
41168;DHT22;26906;45.658;9.272;2023-04-15T13:39:58;22.70;94.90
41168;DHT22;26906;45.658;9.272;2023-04-15T13:42:25;22.80;95.50
41168;DHT22;26906;45.658;9.272;2023-04-15T13:44:51;22.90;94.80
41168;DHT22;26906;45.658;9.272;2023-04-15T13:47:20;22.90;94.60
41168;DHT22;26906;45.658;9.272;2023-04-15T13:49:46;22.80;94.60
41168;DHT22;26906;45.658;9.272;2023-04-15T13:52:12;22.80;95.00
41168;DHT22;26906;45.658;9.272;2023-04-15T13:54:38;22.60;94.90
41168;DHT22;26906;45.658;9.272;2023-04-15T13:57:04;22.30;93.80
41168;DHT22;26906;45.658;9.272;2023-04-15T13:59:30;22.10;94.00
41168;DHT22;26906;45.658;9.272;2023-04-15T14:01:56;22.10;94.60
41168;DHT22;26906;45.658;9.272;2023-04-15T14:04:21;22.00;94.90
41168;DHT22;26906;45.658;9.272;2023-04-15T14:06:47;22.10;94.20
41168;DHT22;26906;45.658;9.272;2023-04-15T14:09:14;22.10;94.90
41168;DHT22;26906;45.658;9.272;2023-04-15T14:11:41;22.30;94.20
41168;DHT22;26906;45.658;9.272;2023-04-15T14:14:07;22.20;95.20
41168;DHT22;26906;45.658;9.272;2023-04-15T14:16:34;22.20;94.30
41168;DHT22;26906;45.658;9.272;2023-04-15T14:19:01;22.10;95.00
41168;DHT22;26906;45.658;9.272;2023-04-15T14:21:27;22.10;94.80
41168;DHT22;26906;45.658;9.272;2023-04-15T14:23:53;22.30;95.40
41168;DHT22;26906;45.658;9.272;2023-04-15T14:26:19;22.50;95.30
41168;DHT22;26906;45.658;9.272;2023-04-15T14:28:46;22.90;95.80
41168;DHT22;26906;45.658;9.272;2023-04-15T14:31:12;23.10;94.20
41168;DHT22;26906;45.658;9.272;2023-04-15T14:33:38;23.20;93.60
41168;DHT22;26906;45.658;9.272;2023-04-15T14:36:05;23.40;93.20
41168;DHT22;26906;45.658;9.272;2023-04-15T14:38:33;23.20;92.70
41168;DHT22;26906;45.658;9.272;2023-04-15T14:41:03;23.10;92.90
41168;DHT22;26906;45.658;9.272;2023-04-15T14:43:29;22.90;93.10
41168;DHT22;26906;45.658;9.272;2023-04-15T14:45:55;22.80;93.00
41168;DHT22;26906;45.658;9.272;2023-04-15T14:48:20;22.90;91.50
41168;DHT22;26906;45.658;9.272;2023-04-15T14:50:46;22.70;91.30
41168;DHT22;26906;45.658;9.272;2023-04-15T14:53:12;22.80;91.90
41168;DHT22;26906;45.658;9.272;2023-04-15T14:55:38;22.90;91.50
41168;DHT22;26906;45.658;9.272;2023-04-15T14:58:04;22.90;91.20
41168;DHT22;26906;45.658;9.272;2023-04-15T15:00:30;23.10;90.50
41168;DHT22;26906;45.658;9.272;2023-04-15T15:02:56;23.00;90.80
41168;DHT22;26906;45.658;9.272;2023-04-15T15:05:21;23.20;91.10
41168;DHT22;26906;45.658;9.272;2023-04-15T15:07:47;23.20;89.40
41168;DHT22;26906;45.658;9.272;2023-04-15T15:10:13;23.20;88.60
41168;DHT22;26906;45.658;9.272;2023-04-15T15:12:38;23.00;89.60
41168;DHT22;26906;45.658;9.272;2023-04-15T15:15:05;22.60;89.10
41168;DHT22;26906;45.658;9.272;2023-04-15T15:17:31;22.50;90.70
41168;DHT22;26906;45.658;9.272;2023-04-15T15:19:56;22.40;90.30
41168;DHT22;26906;45.658;9.272;2023-04-15T15:22:22;22.40;91.50
41168;DHT22;26906;45.658;9.272;2023-04-15T15:24:48;22.80;90.40
41168;DHT22;26906;45.658;9.272;2023-04-15T15:27:13;22.90;90.30
41168;DHT22;26906;45.658;9.272;2023-04-15T15:29:39;22.80;90.20
41168;DHT22;26906;45.658;9.272;2023-04-15T15:32:05;22.50;90.20
41168;DHT22;26906;45.658;9.272;2023-04-15T15:34:31;22.60;90.30
41168;DHT22;26906;45.658;9.272;2023-04-15T15:36:56;22.90;89.60
41168;DHT22;26906;45.658;9.272;2023-04-15T15:39:22;22.90;90.60
41168;DHT22;26906;45.658;9.272;2023-04-15T15:41:49;23.10;90.40
41168;DHT22;26906;45.658;9.272;2023-04-15T15:44:14;23.00;90.10
41168;DHT22;26906;45.658;9.272;2023-04-15T15:46:40;22.90;90.00
41168;DHT22;26906;45.658;9.272;2023-04-15T15:49:06;23.00;90.10
41168;DHT22;26906;45.658;9.272;2023-04-15T15:51:32;22.80;90.00
41168;DHT22;26906;45.658;9.272;2023-04-15T15:53:57;22.50;88.90
41168;DHT22;26906;45.658;9.272;2023-04-15T15:56:23;22.30;88.60
41168;DHT22;26906;45.658;9.272;2023-04-15T15:58:49;22.30;88.90
41168;DHT22;26906;45.658;9.272;2023-04-15T16:01:15;22.20;90.10
41168;DHT22;26906;45.658;9.272;2023-04-15T16:03:41;22.10;90.20
41168;DHT22;26906;45.658;9.272;2023-04-15T16:06:06;22.20;89.90
41168;DHT22;26906;45.658;9.272;2023-04-15T16:08:32;22.00;89.30
41168;DHT22;26906;45.658;9.272;2023-04-15T16:10:58;21.90;90.00
41168;DHT22;26906;45.658;9.272;2023-04-15T16:13:23;22.00;90.40
41168;DHT22;26906;45.658;9.272;2023-04-15T16:15:49;22.10;90.10
41168;DHT22;26906;45.658;9.272;2023-04-15T16:18:15;22.20;89.80
41168;DHT22;26906;45.658;9.272;2023-04-15T16:20:41;21.90;89.50
41168;DHT22;26906;45.658;9.272;2023-04-15T16:23:14;21.80;89.50
41168;DHT22;26906;45.658;9.272;2023-04-15T16:25:41;21.70;90.30
41168;DHT22;26906;45.658;9.272;2023-04-15T16:28:07;21.80;90.60
41168;DHT22;26906;45.658;9.272;2023-04-15T16:30:36;21.80;90.60
41168;DHT22;26906;45.658;9.272;2023-04-15T16:33:03;21.80;91.70
41168;DHT22;26906;45.658;9.272;2023-04-15T16:35:29;21.50;91.20
41168;DHT22;26906;45.658;9.272;2023-04-15T16:37:55;21.40;92.30
41168;DHT22;26906;45.658;9.272;2023-04-15T16:40:20;21.40;92.90
41168;DHT22;26906;45.658;9.272;2023-04-15T16:42:46;21.30;92.80
41168;DHT22;26906;45.658;9.272;2023-04-15T16:45:12;21.30;93.10
41168;DHT22;26906;45.658;9.272;2023-04-15T16:47:37;21.20;93.00
41168;DHT22;26906;45.658;9.272;2023-04-15T16:50:03;21.10;94.00
41168;DHT22;26906;45.658;9.272;2023-04-15T16:52:29;21.10;94.70
41168;DHT22;26906;45.658;9.272;2023-04-15T16:54:55;20.90;95.10
41168;DHT22;26906;45.658;9.272;2023-04-15T16:57:20;20.70;95.80
41168;DHT22;26906;45.658;9.272;2023-04-15T16:59:46;20.60;95.50
41168;DHT22;26906;45.658;9.272;2023-04-15T17:02:12;20.40;95.40
41168;DHT22;26906;45.658;9.272;2023-04-15T17:04:38;19.80;94.90
41168;DHT22;26906;45.658;9.272;2023-04-15T17:07:04;19.40;94.60
41168;DHT22;26906;45.658;9.272;2023-04-15T17:09:38;19.10;94.80
41168;DHT22;26906;45.658;9.272;2023-04-15T17:12:03;18.80;93.70
41168;DHT22;26906;45.658;9.272;2023-04-15T17:14:30;18.60;93.20
41168;DHT22;26906;45.658;9.272;2023-04-15T17:16:56;18.50;93.60
41168;DHT22;26906;45.658;9.272;2023-04-15T17:19:22;18.20;93.60
41168;DHT22;26906;45.658;9.272;2023-04-15T17:21:47;18.20;93.70
41168;DHT22;26906;45.658;9.272;2023-04-15T17:24:14;18.20;94.10
41168;DHT22;26906;45.658;9.272;2023-04-15T17:26:40;18.10;94.00
41168;DHT22;26906;45.658;9.272;2023-04-15T17:29:06;18.10;93.70
41168;DHT22;26906;45.658;9.272;2023-04-15T17:31:31;17.90;93.80
41168;DHT22;26906;45.658;9.272;2023-04-15T17:33:57;17.80;94.00
41168;DHT22;26906;45.658;9.272;2023-04-15T17:36:23;17.60;94.10
41168;DHT22;26906;45.658;9.272;2023-04-15T17:38:48;17.60;94.40
41168;DHT22;26906;45.658;9.272;2023-04-15T17:41:14;17.50;94.60
41168;DHT22;26906;45.658;9.272;2023-04-15T17:43:42;17.20;94.80
41168;DHT22;26906;45.658;9.272;2023-04-15T17:46:07;17.10;94.90
41168;DHT22;26906;45.658;9.272;2023-04-15T17:48:33;17.20;95.00
41168;DHT22;26906;45.658;9.272;2023-04-15T17:50:59;17.20;95.10
41168;DHT22;26906;45.658;9.272;2023-04-15T17:53:25;17.30;95.00
41168;DHT22;26906;45.658;9.272;2023-04-15T17:55:52;17.30;95.20
41168;DHT22;26906;45.658;9.272;2023-04-15T17:58:22;17.20;95.20
41168;DHT22;26906;45.658;9.272;2023-04-15T18:00:48;17.10;95.40
41168;DHT22;26906;45.658;9.272;2023-04-15T18:03:13;17.10;95.60
41168;DHT22;26906;45.658;9.272;2023-04-15T18:05:39;17.20;95.60
41168;DHT22;26906;45.658;9.272;2023-04-15T18:08:06;17.10;95.80
41168;DHT22;26906;45.658;9.272;2023-04-15T18:10:35;17.10;95.90
41168;DHT22;26906;45.658;9.272;2023-04-15T18:13:00;17.20;96.50
41168;DHT22;26906;45.658;9.272;2023-04-15T18:15:29;17.10;96.70
41168;DHT22;26906;45.658;9.272;2023-04-15T18:17:56;17.00;97.00
41168;DHT22;26906;45.658;9.272;2023-04-15T18:20:22;16.90;97.20
41168;DHT22;26906;45.658;9.272;2023-04-15T18:22:48;16.90;97.60
41168;DHT22;26906;45.658;9.272;2023-04-15T18:25:15;16.80;97.80
41168;DHT22;26906;45.658;9.272;2023-04-15T18:27:40;16.80;98.30
41168;DHT22;26906;45.658;9.272;2023-04-15T18:30:10;16.90;98.50
41168;DHT22;26906;45.658;9.272;2023-04-15T18:32:37;16.90;99.00
41168;DHT22;26906;45.658;9.272;2023-04-15T18:35:03;16.80;99.20
41168;DHT22;26906;45.658;9.272;2023-04-15T18:37:29;16.80;99.50
41168;DHT22;26906;45.658;9.272;2023-04-15T18:39:55;16.70;99.90
41168;DHT22;26906;45.658;9.272;2023-04-15T18:42:22;16.80;99.90
41168;DHT22;26906;45.658;9.272;2023-04-15T18:44:49;16.80;99.90
41168;DHT22;26906;45.658;9.272;2023-04-15T18:47:15;16.80;99.90
41168;DHT22;26906;45.658;9.272;2023-04-15T18:49:44;16.80;99.90
41168;DHT22;26906;45.658;9.272;2023-04-15T18:52:09;16.70;99.90
41168;DHT22;26906;45.658;9.272;2023-04-15T18:54:35;16.70;99.90
41168;DHT22;26906;45.658;9.272;2023-04-15T18:57:01;16.70;99.90
41168;DHT22;26906;45.658;9.272;2023-04-15T18:59:30;16.80;99.90
41168;DHT22;26906;45.658;9.272;2023-04-15T19:01:57;16.80;99.90
41168;DHT22;26906;45.658;9.272;2023-04-15T19:04:23;16.60;99.90
41168;DHT22;26906;45.658;9.272;2023-04-15T19:06:49;16.70;99.90
41168;DHT22;26906;45.658;9.272;2023-04-15T19:09:15;16.70;99.90
41168;DHT22;26906;45.658;9.272;2023-04-15T19:11:42;16.50;99.90
41168;DHT22;26906;45.658;9.272;2023-04-15T19:14:09;16.40;99.90
41168;DHT22;26906;45.658;9.272;2023-04-15T19:16:34;16.60;99.90
41168;DHT22;26906;45.658;9.272;2023-04-15T19:19:00;16.50;99.90
41168;DHT22;26906;45.658;9.272;2023-04-15T19:21:26;16.60;99.90
41168;DHT22;26906;45.658;9.272;2023-04-15T19:23:55;16.30;99.90
41168;DHT22;26906;45.658;9.272;2023-04-15T19:26:21;16.20;99.90
41168;DHT22;26906;45.658;9.272;2023-04-15T19:28:47;16.10;99.90
41168;DHT22;26906;45.658;9.272;2023-04-15T19:31:12;16.10;99.90
41168;DHT22;26906;45.658;9.272;2023-04-15T19:33:38;16.10;99.90
41168;DHT22;26906;45.658;9.272;2023-04-15T19:36:07;16.00;99.90
41168;DHT22;26906;45.658;9.272;2023-04-15T19:38:33;15.80;99.90
41168;DHT22;26906;45.658;9.272;2023-04-15T19:41:03;15.80;99.90
41168;DHT22;26906;45.658;9.272;2023-04-15T19:43:31;15.80;99.90
41168;DHT22;26906;45.658;9.272;2023-04-15T19:45:57;15.80;99.90
41168;DHT22;26906;45.658;9.272;2023-04-15T19:48:23;15.80;99.90
41168;DHT22;26906;45.658;9.272;2023-04-15T19:50:49;15.90;99.90
41168;DHT22;26906;45.658;9.272;2023-04-15T19:53:16;15.90;99.90
41168;DHT22;26906;45.658;9.272;2023-04-15T19:55:42;15.80;99.90
41168;DHT22;26906;45.658;9.272;2023-04-15T19:58:08;15.80;99.90
41168;DHT22;26906;45.658;9.272;2023-04-15T20:00:33;15.80;99.90
41168;DHT22;26906;45.658;9.272;2023-04-15T20:02:59;15.90;99.90
41168;DHT22;26906;45.658;9.272;2023-04-15T20:05:25;16.00;99.90
41168;DHT22;26906;45.658;9.272;2023-04-15T20:07:51;16.00;99.90
41168;DHT22;26906;45.658;9.272;2023-04-15T20:10:19;15.90;99.90
41168;DHT22;26906;45.658;9.272;2023-04-15T20:12:45;15.70;99.90
41168;DHT22;26906;45.658;9.272;2023-04-15T20:15:11;15.70;99.90
41168;DHT22;26906;45.658;9.272;2023-04-15T20:17:37;15.60;99.90
41168;DHT22;26906;45.658;9.272;2023-04-15T20:20:03;15.50;99.90
41168;DHT22;26906;45.658;9.272;2023-04-15T20:22:30;15.50;99.90
41168;DHT22;26906;45.658;9.272;2023-04-15T20:24:58;15.70;99.90
41168;DHT22;26906;45.658;9.272;2023-04-15T20:27:26;15.60;99.90
41168;DHT22;26906;45.658;9.272;2023-04-15T20:29:53;15.40;99.90
41168;DHT22;26906;45.658;9.272;2023-04-15T20:32:19;15.30;99.90
41168;DHT22;26906;45.658;9.272;2023-04-15T20:34:45;15.50;99.90
41168;DHT22;26906;45.658;9.272;2023-04-15T20:37:11;15.50;99.90
41168;DHT22;26906;45.658;9.272;2023-04-15T20:39:37;15.30;99.90
41168;DHT22;26906;45.658;9.272;2023-04-15T20:42:03;15.30;99.90
41168;DHT22;26906;45.658;9.272;2023-04-15T20:44:28;15.30;99.90
